Decoded Metar for WBKL (LABUAN in MALAYSIA) (IATA:LBU) | Meteo·Mobile Aviation Weather
aviador You're here:

WBKL Decoded Metar

LABUAN in MALAYSIA
Report Time2018-08-20 01:00:00
UTC Time2018-08-20 01:25:24
Flight Rules vfr VFR
WindVRB at 01 kt
Visibility9999 m
Phenomena:N/A
Clouds:Few 014 Hf
Broken 290 Hf
Expected CloudBase > 2,000 ft AGL from Temp-Dew spread
Ceiling29,000 ft
Temp31°C (ISA +16)
Dew Point26°C (75% RH)
Heat Index39.2°C
QNH1010 hPa
Density Alt2,490 ft
Elevation98 ft
Report Wrong Elevation
Raw Report
METAR WBKL 200100Z VRB01KT 9999 FEW014 BKN290 31/26 Q1010=

Extra information for WBKL:More info

Metar Taf Metar & Taf Last 4 Metars F.Rules Stats Wind Profile Meteogram Temp Stats Airport Information Weather charts Add Link Nearby VenuesMetar ALERT Operation Metar Decoded Social comments